This is the latest recevied weather packets stored in our database for station/object E23XBQ-1. If no packets are shown the sender has not sent any weather packets the latest 10 day(s).
| Time | Temp. | Humidity | Pressure | Rain* | Wind** | Luminosity | Snow |
|---|---|---|---|---|---|---|---|
| 1777709494 | 37.22° C | 33% | 967 hPa | - | - | 0 W/m² | - |
| 1777708869 | 38.33° C | 32% | 967 hPa | - | - | 0 W/m² | - |
| 1777708245 | 38.33° C | 33% | 967 hPa | - | - | 0 W/m² | - |
| 1777707621 | 38.89° C | 34% | 967 hPa | - | - | 0 W/m² | - |
| 1777706996 | 39.44° C | 31% | 968 hPa | - | - | 0 W/m² | - |
| 1777706372 | 39.44° C | 30% | 968 hPa | - | - | 0 W/m² | - |
| 1777705749 | 38.89° C | 32% | 968 hPa | - | - | 0 W/m² | - |
| 1777705124 | 39.44° C | 31% | 968 hPa | - | - | 0 W/m² | - |
| 1777704499 | 38.33° C | 33% | 969 hPa | - | - | 0 W/m² | - |
| 1777703874 | 37.78° C | 34% | 969 hPa | - | - | 0 W/m² | - |
| 1777703250 | 38.33° C | 34% | 969 hPa | - | - | 0 W/m² | - |
| 1777702625 | 38.33° C | 35% | 969 hPa | - | - | 0 W/m² | - |
| 1777702001 | 38.89° C | 32% | 970 hPa | - | - | 0 W/m² | - |
| 1777701376 | 38.33° C | 35% | 970 hPa | - | - | 0 W/m² | - |
| 1777700752 | 38.33° C | 33% | 970 hPa | - | - | 0 W/m² | - |
| 1777700127 | 37.78° C | 34% | 970 hPa | - | - | 0 W/m² | - |
| 1777699503 | 37.22° C | 37% | 971 hPa | - | - | 0 W/m² | - |
| 1777698878 | 36.67° C | 38% | 971 hPa | - | - | 0 W/m² | - |
| 1777698254 | 37.22° C | 37% | 971 hPa | - | - | 0 W/m² | - |
| 1777697630 | 37.22° C | 37% | 971 hPa | - | - | 0 W/m² | - |
| 1777697005 | 37.22° C | 39% | 971 hPa | - | - | 0 W/m² | - |
| 1777696381 | 36.67° C | 39% | 972 hPa | - | - | 0 W/m² | - |
| 1777695756 | 36.67° C | 42% | 972 hPa | - | - | 0 W/m² | - |
| 1777695131 | 36.67° C | 40% | 972 hPa | - | - | 0 W/m² | - |
| 1777694507 | 36.11° C | 41% | 972 hPa | - | - | 0 W/m² | - |
* Rain since midnight (hover to see other rain measurements)
** Current wind speed in m/s (hover to see current wind gust speed)